createdAt,value
2022-12-22T00:01:54.751Z,99822.16
2022-12-22T00:04:40.469Z,99818.63
2022-12-22T00:07:25.843Z,99813.25
2022-12-22T00:10:10.625Z,99809.56
2022-12-22T00:12:55.837Z,99806.88
2022-12-22T00:15:41.394Z,99805.84
2022-12-22T00:18:33.957Z,99802.78
2022-12-22T00:21:19.152Z,99798.47
2022-12-22T00:24:04.062Z,99797.44
2022-12-22T00:26:52.965Z,99795.41
2022-12-22T00:29:38.791Z,99786.50
2022-12-22T00:32:24.656Z,99792.53
2022-12-22T00:35:09.892Z,99781.59
2022-12-22T00:37:56.219Z,99774.19
2022-12-22T00:40:43.669Z,99780.03
2022-12-22T00:43:28.417Z,99776.78
2022-12-22T00:46:15.598Z,99777.00
2022-12-22T00:49:03.016Z,99780.50
2022-12-22T00:51:49.273Z,99772.44
2022-12-22T00:54:36.694Z,99769.38
2022-12-22T00:57:22.745Z,99758.66
2022-12-22T01:00:08.898Z,99749.56
2022-12-22T01:02:54.476Z,99747.34
2022-12-22T01:05:40.221Z,99745.50
2022-12-22T01:08:29.623Z,99749.28
2022-12-22T01:11:15.038Z,99746.59
2022-12-22T01:14:00.352Z,99742.06
2022-12-22T01:16:45.138Z,99744.38
2022-12-22T01:19:30.327Z,99740.47
2022-12-22T01:22:16.173Z,99747.31
2022-12-22T01:25:02.066Z,99733.50
2022-12-22T01:27:46.890Z,99724.44
2022-12-22T01:30:32.200Z,99719.72
2022-12-22T01:33:17.093Z,99723.03
2022-12-22T01:36:01.882Z,99727.19
2022-12-22T01:38:46.827Z,99727.03
2022-12-22T01:41:36.610Z,99726.63
2022-12-22T01:44:32.172Z,99714.88
2022-12-22T01:47:48.429Z,99716.53
2022-12-22T01:50:45.589Z,99717.19
2022-12-22T01:53:36.242Z,99717.00
2022-12-22T01:56:21.923Z,99717.00
2022-12-22T01:59:13.806Z,99716.81
2022-12-22T02:02:00.884Z,99708.75
2022-12-22T02:04:52.406Z,99706.72
2022-12-22T02:07:44.473Z,99693.28
2022-12-22T02:10:37.129Z,99696.78
2022-12-22T02:13:47.981Z,99688.50
2022-12-22T02:16:56.925Z,99683.16
2022-12-22T02:19:53.781Z,99672.41
2022-12-22T02:22:48.779Z,99672.06
2022-12-22T02:25:39.141Z,99662.31
2022-12-22T02:28:24.905Z,99650.06
2022-12-22T02:31:11.198Z,99643.88
2022-12-22T02:33:56.333Z,99644.34
2022-12-22T02:37:26.324Z,99648.88
2022-12-22T02:40:23.607Z,99652.56
2022-12-22T02:43:21.275Z,99643.88
2022-12-22T02:46:45.525Z,99640.16
2022-12-22T02:49:57.023Z,99628.78
2022-12-22T02:52:49.487Z,99621.53
2022-12-22T02:55:35.910Z,99617.19
2022-12-22T02:58:20.661Z,99610.78
2022-12-22T03:01:06.460Z,99611.81
2022-12-22T03:03:51.226Z,99600.88
2022-12-22T03:06:36.361Z,99589.31
2022-12-22T03:09:21.754Z,99595.50
2022-12-22T03:12:06.435Z,99590.13
2022-12-22T03:14:51.213Z,99583.72
2022-12-22T03:17:36.115Z,99579.38
2022-12-22T03:20:20.851Z,99582.06
2022-12-22T03:23:05.701Z,99582.06
2022-12-22T03:25:50.415Z,99577.50
2022-12-22T03:28:16.794Z,99581.03
2022-12-22T03:30:43.127Z,99581.03
2022-12-22T03:33:09.447Z,99577.34
2022-12-22T03:35:36.071Z,99570.28
2022-12-22T03:38:03.476Z,99567.44
2022-12-22T03:40:31.607Z,99563.91
2022-12-22T03:43:17.349Z,99565.56
2022-12-22T03:46:02.140Z,99557.53
2022-12-22T03:48:28.528Z,99549.47
2022-12-22T03:50:55.005Z,99545.09
2022-12-22T03:53:21.827Z,99549.63
2022-12-22T03:55:48.587Z,99546.09
2022-12-22T03:58:15.332Z,99545.28
2022-12-22T04:00:41.954Z,99541.75
2022-12-22T04:03:08.843Z,99540.94
2022-12-22T04:05:35.615Z,99544.44
2022-12-22T04:08:02.642Z,99540.94
2022-12-22T04:10:47.605Z,99538.03
2022-12-22T04:13:13.956Z,99532.66
2022-12-22T04:15:40.444Z,99532.66
2022-12-22T04:18:07.043Z,99532.66
2022-12-22T04:20:33.446Z,99528.13
2022-12-22T04:23:00.324Z,99532.66
2022-12-22T04:25:28.156Z,99527.13
2022-12-22T04:27:54.490Z,99533.34
2022-12-22T04:30:20.936Z,99522.59
2022-12-22T04:32:47.276Z,99519.91
2022-12-22T04:35:13.604Z,99520.72
2022-12-22T04:37:39.974Z,99508.13
2022-12-22T04:40:06.862Z,99501.72
2022-12-22T04:42:33.326Z,99499.03
2022-12-22T04:44:59.650Z,99497.19
2022-12-22T04:47:26.018Z,99494.31
2022-12-22T04:49:52.391Z,99484.38
2022-12-22T04:52:18.739Z,99476.31
2022-12-22T04:54:45.066Z,99476.31
2022-12-22T04:57:11.484Z,99468.25
2022-12-22T04:59:37.870Z,99471.78
2022-12-22T05:02:04.469Z,99472.59
2022-12-22T05:04:31.015Z,99469.09
2022-12-22T05:06:57.541Z,99467.22
2022-12-22T05:09:23.859Z,99470.53
2022-12-22T05:11:50.183Z,99465.00
2022-12-22T05:14:16.512Z,99474.06
2022-12-22T05:16:42.932Z,99469.50
2022-12-22T05:19:09.476Z,99461.44
2022-12-22T05:21:35.839Z,99466.63
2022-12-22T05:24:02.257Z,99462.91
2022-12-22T05:26:28.572Z,99452.16
2022-12-22T05:28:54.935Z,99446.78
2022-12-22T05:31:24.001Z,99450.31
2022-12-22T05:33:50.648Z,99447.41
2022-12-22T05:36:17.089Z,99443.91
2022-12-22T05:38:44.675Z,99445.56
2022-12-22T05:41:11.442Z,99450.94
2022-12-22T05:43:37.791Z,99447.25
2022-12-22T05:46:06.509Z,99449.94
2022-12-22T05:48:38.090Z,99447.25
2022-12-22T05:51:05.685Z,99445.19
2022-12-22T05:53:32.059Z,99442.69
2022-12-22T05:55:58.411Z,99438.97
2022-12-22T05:58:24.816Z,99450.56
2022-12-22T06:00:51.331Z,99443.50
2022-12-22T06:03:17.987Z,99438.97
2022-12-22T06:05:44.415Z,99446.00
2022-12-22T06:08:10.760Z,99438.97
2022-12-22T06:10:37.081Z,99446.00
2022-12-22T06:13:03.430Z,99443.09
2022-12-22T06:15:29.747Z,99440.63
2022-12-22T06:17:56.207Z,99439.59
2022-12-22T06:20:22.562Z,99439.59
2022-12-22T06:22:48.915Z,99445.78
2022-12-22T06:25:18.421Z,99453.03
2022-12-22T06:27:46.116Z,99454.72
2022-12-22T06:30:12.834Z,99456.38
2022-12-22T06:32:39.513Z,99455.53
2022-12-22T06:35:07.598Z,99454.50
2022-12-22T06:37:34.084Z,99462.56
2022-12-22T06:40:00.482Z,99460.91
2022-12-22T06:42:45.551Z,99454.72
2022-12-22T06:45:12.030Z,99459.25
2022-12-22T06:47:38.414Z,99464.00
2022-12-22T06:50:05.569Z,99472.25
2022-12-22T06:52:31.910Z,99472.44
2022-12-22T06:54:59.585Z,99468.28
2022-12-22T06:57:25.908Z,99478.22
2022-12-22T06:59:57.260Z,99472.00
2022-12-22T07:02:24.417Z,99471.19
2022-12-22T07:04:51.199Z,99467.69
2022-12-22T07:07:17.539Z,99472.00
2022-12-22T07:09:43.976Z,99466.63
2022-12-22T07:12:10.308Z,99472.00
2022-12-22T07:14:36.696Z,99473.66
2022-12-22T07:17:03.113Z,99483.41
2022-12-22T07:19:29.511Z,99484.03
2022-12-22T07:21:55.864Z,99492.09
2022-12-22T07:24:25.664Z,99484.03
2022-12-22T07:26:52.671Z,99491.06
2022-12-22T07:29:19.081Z,99494.59
2022-12-22T07:31:45.586Z,99496.25
2022-12-22T07:34:12.247Z,99502.47
2022-12-22T07:36:38.613Z,99509.69
2022-12-22T07:39:05.087Z,99509.69
2022-12-22T07:41:50.129Z,99512.38
2022-12-22T07:44:16.450Z,99519.59
2022-12-22T07:46:42.926Z,99515.25
2022-12-22T07:49:30.020Z,99518.78
2022-12-22T07:51:58.155Z,99520.81
2022-12-22T07:54:26.203Z,99516.31
2022-12-22T07:56:52.793Z,99532.44
2022-12-22T07:59:19.573Z,99536.13
2022-12-22T08:01:47.240Z,99538.63
2022-12-22T08:04:14.858Z,99533.44
2022-12-22T08:06:41.214Z,99538.63
2022-12-22T08:09:08.389Z,99539.44
2022-12-22T08:11:34.982Z,99541.31
2022-12-22T08:14:02.219Z,99533.25
2022-12-22T08:16:29.556Z,99526.84
2022-12-22T08:18:56.277Z,99541.09
2022-12-22T08:21:22.606Z,99533.91
2022-12-22T08:23:48.970Z,99535.72
2022-12-22T08:26:27.835Z,99540.72
2022-12-22T08:29:12.926Z,99550.44
2022-12-22T08:31:40.220Z,99553.13
2022-12-22T08:34:09.149Z,99560.16
2022-12-22T08:36:40.186Z,99560.16
2022-12-22T08:39:07.857Z,99562.84
2022-12-22T08:41:50.988Z,99564.53
2022-12-22T08:44:26.536Z,99561.84
2022-12-22T08:46:54.521Z,99578.59
2022-12-22T08:49:21.359Z,99569.91
2022-12-22T08:51:48.092Z,99573.44
2022-12-22T08:54:15.139Z,99563.50
2022-12-22T08:56:42.397Z,99564.31
2022-12-22T08:59:09.615Z,99572.19
2022-12-22T09:01:38.445Z,99570.16
2022-12-22T09:04:06.928Z,99576.34
2022-12-22T09:06:38.553Z,99593.13
2022-12-22T09:09:09.332Z,99582.16
2022-12-22T09:11:35.887Z,99589.22
2022-12-22T09:14:03.088Z,99596.25
2022-12-22T09:16:31.924Z,99594.38
2022-12-22T09:18:58.714Z,99597.91
2022-12-22T09:21:25.651Z,99610.34
2022-12-22T09:23:52.458Z,99610.34
2022-12-22T09:26:21.106Z,99612.81
2022-12-22T09:28:50.346Z,99621.53
2022-12-22T09:31:18.564Z,99627.53
2022-12-22T09:33:44.937Z,99629.84
2022-12-22T09:36:14.860Z,99632.13
2022-12-22T09:38:42.012Z,99632.13
2022-12-22T09:41:15.190Z,99642.72
2022-12-22T09:43:54.265Z,99649.75
2022-12-22T09:46:26.366Z,99641.69
2022-12-22T09:48:54.135Z,99645.59
2022-12-22T09:51:26.687Z,99645.78
2022-12-22T09:54:01.550Z,99655.91
2022-12-22T09:56:29.080Z,99662.69
2022-12-22T09:58:55.851Z,99660.22
2022-12-22T10:01:41.273Z,99665.78
2022-12-22T10:04:38.792Z,99660.22
2022-12-22T10:07:20.172Z,99665.59
2022-12-22T10:09:50.170Z,99667.44
2022-12-22T10:12:23.838Z,99651.09
2022-12-22T10:14:52.352Z,99661.69
2022-12-22T10:17:34.503Z,99673.69
2022-12-22T10:20:31.065Z,99671.25
2022-12-22T10:23:04.193Z,99685.78
2022-12-22T10:26:17.083Z,99697.44
2022-12-22T10:28:27.712Z,99687.75
2022-12-22T10:31:11.818Z,99692.38
2022-12-22T10:33:44.308Z,99678.53
2022-12-22T10:36:18.927Z,99688.69
2022-12-22T10:39:00.408Z,99696.38
2022-12-22T10:41:30.728Z,99701.38
2022-12-22T10:44:04.221Z,99693.06
2022-12-22T10:46:35.025Z,99700.97
2022-12-22T10:49:12.884Z,99707.19
2022-12-22T10:51:41.069Z,99704.06
2022-12-22T10:54:07.513Z,99708.78
2022-12-22T10:56:34.667Z,99712.72
2022-12-22T10:59:20.192Z,99716.63
2022-12-22T11:01:46.922Z,99726.13
2022-12-22T11:04:27.945Z,99726.31
2022-12-22T11:06:58.332Z,99724.00
2022-12-22T11:09:35.099Z,99720.28
2022-12-22T11:12:39.117Z,99719.88
2022-12-22T11:15:45.264Z,99723.22
2022-12-22T11:18:39.402Z,99722.81
2022-12-22T11:21:30.283Z,99725.13
2022-12-22T11:24:31.610Z,99727.88
2022-12-22T11:27:16.504Z,99739.72
2022-12-22T11:30:10.142Z,99740.78
2022-12-22T11:32:56.813Z,99742.06
2022-12-22T11:35:50.561Z,99750.81
2022-12-22T11:38:31.563Z,99750.03
2022-12-22T11:41:15.009Z,99756.28
2022-12-22T11:44:28.084Z,99750.97
2022-12-22T11:47:15.385Z,99751.38
2022-12-22T11:49:55.152Z,99764.22
2022-12-22T11:53:08.701Z,99776.22
2022-12-22T11:55:40.364Z,99798.16
2022-12-22T11:58:26.222Z,99800.44
2022-12-22T12:01:20.521Z,99796.44
2022-12-22T12:03:51.109Z,99798.91
2022-12-22T12:06:48.398Z,99797.00
2022-12-22T12:09:34.934Z,99800.84
2022-12-22T12:12:39.527Z,99818.81
2022-12-22T12:15:32.421Z,99807.53
2022-12-22T12:18:15.522Z,99812.03
2022-12-22T12:21:10.632Z,99816.31
2022-12-22T12:23:46.072Z,99812.16
2022-12-22T12:26:22.130Z,99813.38
2022-12-22T12:29:18.665Z,99813.38
2022-12-22T12:32:09.568Z,99822.28
2022-12-22T12:34:41.795Z,99816.25
2022-12-22T12:37:24.240Z,99822.66
2022-12-22T12:40:31.878Z,99817.47
2022-12-22T12:42:59.778Z,99824.91
2022-12-22T12:45:41.194Z,99822.41
2022-12-22T12:48:25.531Z,99822.78
2022-12-22T12:50:59.116Z,99823.19
2022-12-22T12:53:27.320Z,99824.38
2022-12-22T12:56:00.324Z,99824.78
2022-12-22T12:58:35.537Z,99833.84
2022-12-22T13:01:26.948Z,99836.28
2022-12-22T13:04:03.016Z,99830.44
2022-12-22T13:06:51.853Z,99834.16
2022-12-22T13:12:50.929Z,99830.00
2022-12-22T13:15:35.218Z,99844.47
2022-12-22T13:18:05.345Z,99839.28
2022-12-22T13:20:37.123Z,99838.44
2022-12-22T13:23:11.962Z,99843.81
2022-12-22T13:26:01.358Z,99839.28
2022-12-22T13:28:29.301Z,99838.63
2022-12-22T13:31:14.276Z,99834.91
2022-12-22T13:33:42.250Z,99833.25
2022-12-22T13:36:18.288Z,99833.25
2022-12-22T13:38:44.822Z,99826.41
2022-12-22T13:41:24.744Z,99824.53
2022-12-22T13:43:57.010Z,99834.47
2022-12-22T13:46:23.599Z,99829.25
2022-12-22T13:48:53.783Z,99830.31
2022-12-22T13:51:23.793Z,99831.31
2022-12-22T13:54:10.922Z,99841.44
2022-12-22T13:56:46.019Z,99847.81
2022-12-22T13:59:27.645Z,99852.38
2022-12-22T14:02:03.153Z,99852.56
2022-12-22T14:04:30.898Z,99855.44
2022-12-22T14:06:57.368Z,99852.91
2022-12-22T14:09:23.652Z,99857.47
2022-12-22T14:12:14.473Z,99865.38
2022-12-22T14:14:44.185Z,99876.50
2022-12-22T14:17:38.047Z,99868.59
2022-12-22T14:20:27.742Z,99875.84
2022-12-22T14:23:07.393Z,99871.00
2022-12-22T14:25:37.906Z,99875.13
2022-12-22T14:28:06.868Z,99878.31
2022-12-22T14:30:41.463Z,99875.16
2022-12-22T14:33:23.200Z,99883.97
2022-12-22T14:35:50.314Z,99883.88
2022-12-22T14:38:23.687Z,99886.09
2022-12-22T14:40:56.856Z,99885.16
2022-12-22T14:43:28.307Z,99884.91
2022-12-22T14:46:04.255Z,99889.13
2022-12-22T14:48:32.874Z,99898.38
2022-12-22T14:51:00.805Z,99891.88
2022-12-22T14:53:37.122Z,99888.28
2022-12-22T14:56:03.532Z,99885.66
2022-12-22T14:58:35.156Z,99883.53
2022-12-22T15:01:21.424Z,99888.78
2022-12-22T15:03:57.037Z,99881.75
2022-12-22T15:06:45.585Z,99887.00
2022-12-22T15:09:14.943Z,99878.84
2022-12-22T15:11:51.222Z,99891.97
2022-12-22T15:14:20.146Z,99889.81
2022-12-22T15:16:46.951Z,99892.03
2022-12-22T15:19:20.782Z,99892.19
2022-12-22T15:21:47.216Z,99890.03
2022-12-22T15:24:16.161Z,99895.41
2022-12-22T15:26:43.190Z,99898.09
2022-12-22T15:29:09.627Z,99892.56
2022-12-22T15:31:38.133Z,99898.75
2022-12-22T15:34:13.013Z,99895.56
2022-12-22T15:36:39.345Z,99893.69
2022-12-22T15:39:13.481Z,99887.97
2022-12-22T15:41:39.840Z,99882.59
2022-12-22T15:44:06.163Z,99889.00
2022-12-22T15:46:32.735Z,99897.22
2022-12-22T15:49:02.147Z,99894.72
2022-12-22T15:51:31.807Z,99898.75
2022-12-22T15:53:58.969Z,99899.28
2022-12-22T15:56:30.086Z,99895.97
2022-12-22T15:58:57.199Z,99896.13
2022-12-22T16:01:23.666Z,99895.13
2022-12-22T16:03:50.132Z,99895.97
2022-12-22T16:06:19.401Z,99903.81
2022-12-22T16:08:49.494Z,99894.41
2022-12-22T16:11:16.789Z,99887.88
2022-12-22T16:13:43.207Z,99883.78
2022-12-22T16:16:09.710Z,99888.78
2022-12-22T16:18:36.086Z,99884.75
2022-12-22T16:21:15.568Z,99872.66
2022-12-22T16:23:44.834Z,99870.44
2022-12-22T16:26:17.348Z,99869.69
2022-12-22T16:28:43.788Z,99864.16
2022-12-22T16:31:23.349Z,99860.94
2022-12-22T16:33:50.460Z,99859.75
2022-12-22T16:36:17.500Z,99860.38
2022-12-22T16:38:45.885Z,99842.44
2022-12-22T16:41:19.392Z,99845.75
2022-12-22T16:46:30.774Z,99842.44
2022-12-22T16:49:00.905Z,99834.38
2022-12-22T16:51:33.916Z,99823.66
2022-12-22T16:54:01.894Z,99812.03
2022-12-22T16:56:30.293Z,99818.06
2022-12-22T16:58:57.504Z,99812.91
2022-12-22T17:01:39.179Z,99820.97
2022-12-22T17:04:44.075Z,99809.38
2022-12-22T17:07:11.548Z,99818.28
2022-12-22T17:09:48.054Z,99816.41
2022-12-22T17:12:18.828Z,99808.38
2022-12-22T17:14:46.632Z,99798.63
2022-12-22T17:17:17.796Z,99800.31
2022-12-22T17:19:44.818Z,99807.53
2022-12-22T17:22:25.067Z,99804.47
2022-12-22T17:24:53.797Z,99802.78
2022-12-22T17:27:24.571Z,99798.91
2022-12-22T17:29:52.111Z,99799.94
2022-12-22T17:32:20.750Z,99804.09
2022-12-22T17:34:47.553Z,99800.59
2022-12-22T17:37:23.174Z,99800.41
2022-12-22T17:40:01.446Z,99786.16
2022-12-22T17:42:27.953Z,99793.16
2022-12-22T17:44:54.375Z,99786.97
2022-12-22T17:47:26.866Z,99786.16
2022-12-22T17:49:58.531Z,99776.22
2022-12-22T17:52:26.924Z,99768.38
2022-12-22T17:54:54.148Z,99771.91
2022-12-22T17:57:25.698Z,99756.78
2022-12-22T17:59:52.020Z,99757.81
2022-12-22T18:02:20.751Z,99754.31
2022-12-22T18:04:48.179Z,99759.84
2022-12-22T18:07:18.488Z,99753.47
2022-12-22T18:09:46.125Z,99754.69
2022-12-22T18:12:24.645Z,99751.78
2022-12-22T18:14:52.062Z,99749.31
2022-12-22T18:17:21.835Z,99739.41
2022-12-22T18:19:48.385Z,99737.75
2022-12-22T18:22:21.378Z,99732.53
2022-12-22T18:24:49.481Z,99737.91
2022-12-22T18:27:16.729Z,99735.22
2022-12-22T18:29:43.981Z,99735.22
2022-12-22T18:32:11.184Z,99720.16
2022-12-22T18:34:38.489Z,99718.28
2022-12-22T18:37:10.741Z,99721.81
2022-12-22T18:39:37.304Z,99713.75
2022-12-22T18:42:04.156Z,99708.38
2022-12-22T18:44:30.586Z,99714.59
2022-12-22T18:46:59.107Z,99700.16
2022-12-22T18:49:25.506Z,99707.19
2022-12-22T18:51:51.881Z,99702.63
2022-12-22T18:54:36.267Z,99698.75
2022-12-22T18:57:03.581Z,99691.72
2022-12-22T18:59:31.043Z,99692.34
2022-12-22T19:02:30.275Z,99683.28
2022-12-22T19:04:56.981Z,99683.28
2022-12-22T19:07:24.932Z,99679.56
2022-12-22T19:09:51.432Z,99677.72
2022-12-22T19:12:25.144Z,99665.16
2022-12-22T19:14:57.504Z,99661.44
2022-12-22T19:17:27.206Z,99661.44
2022-12-22T19:19:53.667Z,99654.41
2022-12-22T19:22:20.595Z,99650.69
2022-12-22T19:24:47.522Z,99648.00
2022-12-22T19:27:23.835Z,99641.59
2022-12-22T19:30:02.685Z,99631.91
2022-12-22T19:32:34.535Z,99629.22
2022-12-22T19:35:01.012Z,99631.25
2022-12-22T19:37:27.344Z,99623.19
2022-12-22T19:39:53.704Z,99615.16
2022-12-22T19:42:22.931Z,99616.19
2022-12-22T19:44:49.299Z,99615.16
2022-12-22T19:47:19.417Z,99603.59
2022-12-22T19:49:45.897Z,99603.59
2022-12-22T19:52:12.211Z,99600.91
2022-12-22T19:54:38.570Z,99598.22
2022-12-22T19:57:12.771Z,99600.72
2022-12-22T19:59:45.843Z,99596.19
2022-12-22T20:02:21.183Z,99592.66
2022-12-22T20:04:48.895Z,99590.81
2022-12-22T20:07:16.828Z,99585.44
2022-12-22T20:09:44.170Z,99580.88
2022-12-22T20:12:33.926Z,99578.03
2022-12-22T20:15:01.313Z,99571.81
2022-12-22T20:17:27.882Z,99570.81
2022-12-22T20:19:54.325Z,99562.75
2022-12-22T20:22:22.703Z,99568.94
2022-12-22T20:24:50.738Z,99575.97
2022-12-22T20:27:27.524Z,99572.28
2022-12-22T20:29:54.045Z,99569.59
2022-12-22T20:32:27.299Z,99570.41
2022-12-22T20:34:54.650Z,99567.72
2022-12-22T20:37:21.017Z,99561.97
2022-12-22T20:39:47.552Z,99557.44
2022-12-22T20:42:19.381Z,99562.63
2022-12-22T20:45:02.747Z,99561.59
2022-12-22T20:47:31.426Z,99555.22
2022-12-22T20:49:57.757Z,99552.53
2022-12-22T20:52:24.161Z,99545.09
2022-12-22T20:54:50.620Z,99551.50
2022-12-22T20:57:17.037Z,99541.41
2022-12-22T20:59:44.331Z,99535.00
2022-12-22T21:02:27.213Z,99538.16
2022-12-22T21:04:53.883Z,99530.91
2022-12-22T21:07:20.240Z,99534.44
2022-12-22T21:09:46.573Z,99529.88
2022-12-22T21:12:12.937Z,99523.50
2022-12-22T21:14:39.686Z,99521.44
2022-12-22T21:17:15.316Z,99519.41
2022-12-22T21:19:41.741Z,99522.91
2022-12-22T21:22:08.076Z,99519.00
2022-12-22T21:24:34.475Z,99521.50
2022-12-22T21:27:00.863Z,99515.94
2022-12-22T21:29:27.492Z,99508.50
2022-12-22T21:31:54.238Z,99508.50
2022-12-22T21:34:20.809Z,99505.66
2022-12-22T21:36:51.344Z,99504.44
2022-12-22T21:39:34.384Z,99501.53
2022-12-22T21:42:00.786Z,99498.66
2022-12-22T21:44:29.180Z,99507.38
2022-12-22T21:46:56.747Z,99494.56
2022-12-22T21:49:25.901Z,99494.34
2022-12-22T21:51:53.537Z,99490.44
2022-12-22T21:54:21.315Z,99484.03
2022-12-22T21:56:48.713Z,99493.78
2022-12-22T21:59:15.630Z,99496.25
2022-12-22T22:01:42.957Z,99490.88
2022-12-22T22:04:09.743Z,99489.06
2022-12-22T22:06:36.279Z,99478.31
2022-12-22T22:09:05.033Z,99482.63
2022-12-22T22:11:31.831Z,99488.00
2022-12-22T22:13:58.242Z,99477.91
2022-12-22T22:16:24.917Z,99480.59
2022-12-22T22:18:51.293Z,99478.75
2022-12-22T22:21:17.947Z,99480.22
2022-12-22T22:23:44.320Z,99485.41
2022-12-22T22:26:11.251Z,99480.88
2022-12-22T22:28:38.013Z,99479.84
2022-12-22T22:31:11.449Z,99477.78
2022-12-22T22:33:38.177Z,99480.25
2022-12-22T22:36:08.250Z,99488.13
2022-12-22T22:38:35.450Z,99475.53
2022-12-22T22:41:01.945Z,99484.41
2022-12-22T22:43:28.290Z,99483.41
2022-12-22T22:45:54.717Z,99487.75
2022-12-22T22:48:22.323Z,99484.88
2022-12-22T22:50:49.200Z,99484.88
2022-12-22T22:53:15.907Z,99484.66
2022-12-22T22:55:42.219Z,99482.81
2022-12-22T22:58:11.176Z,99482.81
2022-12-22T23:00:38.121Z,99474.53
2022-12-22T23:03:04.960Z,99472.50
2022-12-22T23:05:31.708Z,99475.00
2022-12-22T23:07:58.251Z,99472.09
2022-12-22T23:10:24.709Z,99474.38
2022-12-22T23:12:51.027Z,99468.81
2022-12-22T23:15:17.403Z,99473.78
2022-12-22T23:17:43.797Z,99480.63
2022-12-22T23:20:10.616Z,99482.09
2022-12-22T23:22:36.993Z,99486.25
2022-12-22T23:25:03.535Z,99477.16
2022-12-22T23:27:30.308Z,99483.97
2022-12-22T23:29:56.639Z,99475.50
2022-12-22T23:32:23.530Z,99482.34
2022-12-22T23:34:49.888Z,99480.31
2022-12-22T23:37:19.564Z,99483.63
2022-12-22T23:39:46.701Z,99486.97
2022-12-22T23:42:13.140Z,99473.28
2022-12-22T23:44:39.545Z,99480.13
2022-12-22T23:47:05.959Z,99481.00
2022-12-22T23:49:32.400Z,99480.59
2022-12-22T23:51:58.774Z,99482.88
2022-12-22T23:54:25.164Z,99479.97
2022-12-22T23:56:51.620Z,99475.22
2022-12-22T23:59:17.956Z,99472.34
